createdAt,value
2019-05-30T00:01:11.599Z,99354.24
2019-05-30T00:03:41.914Z,99351.89
2019-05-30T00:06:12.145Z,99354.97
2019-05-30T00:08:42.471Z,99350.61
2019-05-30T00:11:13.001Z,99356.92
2019-05-30T00:13:43.409Z,99363.06
2019-05-30T00:16:13.678Z,99356.38
2019-05-30T00:18:44.643Z,99358.09
2019-05-30T00:21:14.915Z,99360.17
2019-05-30T00:23:45.483Z,99359.20
2019-05-30T00:26:15.759Z,99355.99
2019-05-30T00:28:45.983Z,99359.68
2019-05-30T00:31:16.210Z,99358.79
2019-05-30T00:33:46.463Z,99355.99
2019-05-30T00:36:16.751Z,99356.22
2019-05-30T00:38:47.094Z,99363.88
2019-05-30T00:41:17.480Z,99359.11
2019-05-30T00:43:47.758Z,99359.74
2019-05-30T00:46:18.293Z,99361.13
2019-05-30T00:48:48.945Z,99365.03
2019-05-30T00:51:19.191Z,99359.36
2019-05-30T00:53:49.508Z,99363.19
2019-05-30T00:56:19.832Z,99364.61
2019-05-30T00:58:50.125Z,99360.42
2019-05-30T01:01:20.316Z,99356.41
2019-05-30T01:03:50.586Z,99363.89
2019-05-30T01:06:20.859Z,99366.56
2019-05-30T01:08:51.169Z,99366.08
2019-05-30T01:11:21.476Z,99371.06
2019-05-30T01:13:51.764Z,99360.55
2019-05-30T01:16:22.022Z,99362.19
2019-05-30T01:18:52.380Z,99360.91
2019-05-30T01:21:22.970Z,99357.66
2019-05-30T01:23:53.272Z,99359.58
2019-05-30T01:26:23.621Z,99359.58
2019-05-30T01:28:53.945Z,99353.72
2019-05-30T01:31:24.278Z,99357.61
2019-05-30T01:33:54.553Z,99356.60
2019-05-30T01:36:25.199Z,99357.94
2019-05-30T01:38:55.406Z,99357.88
2019-05-30T01:41:25.621Z,99358.66
2019-05-30T01:43:55.918Z,99355.34
2019-05-30T01:46:26.509Z,99352.69
2019-05-30T01:48:58.081Z,99353.68
2019-05-30T01:51:28.367Z,99350.17
2019-05-30T01:53:58.567Z,99351.03
2019-05-30T01:56:28.836Z,99345.48
2019-05-30T01:58:59.080Z,99352.45
2019-05-30T02:01:29.361Z,99347.41
2019-05-30T02:04:00.967Z,99350.40
2019-05-30T02:06:32.577Z,99354.41
2019-05-30T02:09:03.282Z,99353.58
2019-05-30T02:11:35.261Z,99349.56
2019-05-30T02:14:05.762Z,99345.53
2019-05-30T02:19:36.596Z,99348.39
2019-05-30T02:22:07.953Z,99356.98
2019-05-30T02:24:38.466Z,99359.88
2019-05-30T02:27:10.283Z,99364.36
2019-05-30T02:29:41.992Z,99367.48
2019-05-30T02:32:12.264Z,99370.66
2019-05-30T02:34:42.494Z,99373.81
2019-05-30T02:37:13.111Z,99374.88
2019-05-30T02:39:44.425Z,99380.91
2019-05-30T02:42:14.693Z,99377.59
2019-05-30T02:44:44.964Z,99379.02
2019-05-30T02:47:15.273Z,99375.98
2019-05-30T02:49:45.567Z,99382.68
2019-05-30T02:52:15.897Z,99385.63
2019-05-30T02:54:46.170Z,99383.72
2019-05-30T02:57:16.386Z,99383.43
2019-05-30T02:59:46.615Z,99379.06
2019-05-30T03:02:17.894Z,99380.00
2019-05-30T03:04:48.350Z,99381.33
2019-05-30T03:07:18.897Z,99384.67
2019-05-30T03:09:49.264Z,99390.00
2019-05-30T03:12:19.812Z,99382.48
2019-05-30T03:14:50.160Z,99392.48
2019-05-30T03:17:20.486Z,99391.23
2019-05-30T03:19:50.775Z,99392.78
2019-05-30T03:22:21.129Z,99383.61
2019-05-30T03:24:51.513Z,99383.13
2019-05-30T03:27:21.921Z,99392.64
2019-05-30T03:29:52.148Z,99385.72
2019-05-30T03:33:02.724Z,99388.19
2019-05-30T03:34:54.339Z,99395.13
2019-05-30T03:37:29.031Z,99401.23
2019-05-30T03:39:56.937Z,99396.94
2019-05-30T03:42:27.161Z,99400.56
2019-05-30T03:44:57.667Z,99405.25
2019-05-30T03:47:31.342Z,99406.66
2019-05-30T03:50:05.169Z,99412.19
2019-05-30T03:52:35.767Z,99411.34
2019-05-30T03:55:09.257Z,99410.38
2019-05-30T03:57:44.906Z,99416.29
2019-05-30T04:00:28.766Z,99420.16
2019-05-30T04:03:10.939Z,99423.79
2019-05-30T04:05:44.362Z,99424.00
2019-05-30T04:08:19.513Z,99437.04
2019-05-30T04:10:52.467Z,99431.33
2019-05-30T04:13:27.709Z,99436.95
2019-05-30T04:15:58.574Z,99434.94
2019-05-30T04:18:29.619Z,99442.72
2019-05-30T04:20:59.916Z,99444.91
2019-05-30T04:23:30.158Z,99456.05
2019-05-30T04:26:01.313Z,99447.78
2019-05-30T04:28:31.520Z,99444.64
2019-05-30T04:31:01.759Z,99452.28
2019-05-30T04:33:33.734Z,99453.52
2019-05-30T04:36:04.556Z,99454.88
2019-05-30T04:38:34.955Z,99453.83
2019-05-30T04:41:05.840Z,99453.45
2019-05-30T04:43:36.114Z,99456.78
2019-05-30T04:46:06.354Z,99455.06
2019-05-30T04:48:36.588Z,99455.06
2019-05-30T04:51:06.870Z,99454.88
2019-05-30T04:53:37.082Z,99448.69
2019-05-30T04:56:07.298Z,99448.20
2019-05-30T04:58:41.991Z,99450.58
2019-05-30T05:01:10.863Z,99453.90
2019-05-30T05:03:46.326Z,99456.37
2019-05-30T05:06:15.646Z,99458.55
2019-05-30T05:08:46.131Z,99451.86
2019-05-30T05:11:20.457Z,99448.70
2019-05-30T05:13:48.765Z,99458.19
2019-05-30T05:16:31.064Z,99456.47
2019-05-30T05:18:51.159Z,99456.84
2019-05-30T05:21:21.658Z,99457.38
2019-05-30T05:23:52.603Z,99459.63
2019-05-30T05:26:23.642Z,99462.70
2019-05-30T05:28:54.066Z,99464.95
2019-05-30T05:31:24.494Z,99462.26
2019-05-30T05:33:57.169Z,99460.62
2019-05-30T05:36:27.003Z,99466.03
2019-05-30T05:38:57.276Z,99468.63
2019-05-30T05:41:28.599Z,99464.50
2019-05-30T05:43:59.013Z,99468.56
2019-05-30T05:46:29.669Z,99474.55
2019-05-30T05:49:00.170Z,99478.25
2019-05-30T05:51:31.828Z,99486.78
2019-05-30T05:54:02.155Z,99487.86
2019-05-30T05:56:32.425Z,99485.36
2019-05-30T05:59:02.698Z,99480.38
2019-05-30T06:01:33.399Z,99481.13
2019-05-30T06:04:12.769Z,99485.28
2019-05-30T06:06:36.873Z,99485.81
2019-05-30T06:09:07.658Z,99491.25
2019-05-30T06:11:37.938Z,99491.78
2019-05-30T06:14:08.523Z,99497.67
2019-05-30T06:16:38.773Z,99488.56
2019-05-30T06:19:09.363Z,99498.52
2019-05-30T06:21:53.030Z,99499.44
2019-05-30T06:24:11.543Z,99506.08
2019-05-30T06:26:42.294Z,99502.26
2019-05-30T06:29:12.903Z,99504.09
2019-05-30T06:31:44.234Z,99502.75
2019-05-30T06:34:28.179Z,99504.68
2019-05-30T06:36:46.411Z,99502.78
2019-05-30T06:39:16.773Z,99507.25
2019-05-30T06:41:48.076Z,99512.08
2019-05-30T06:44:18.372Z,99502.73
2019-05-30T06:46:48.662Z,99508.18
2019-05-30T06:49:18.913Z,99505.05
2019-05-30T06:51:49.213Z,99505.61
2019-05-30T06:54:19.444Z,99500.86
2019-05-30T06:56:49.809Z,99509.81
2019-05-30T06:59:21.416Z,99507.39
2019-05-30T07:01:52.416Z,99504.72
2019-05-30T07:04:23.416Z,99510.34
2019-05-30T07:06:55.278Z,99508.68
2019-05-30T07:09:26.744Z,99507.61
2019-05-30T07:11:57.193Z,99508.70
2019-05-30T07:14:27.462Z,99509.19
2019-05-30T07:16:57.970Z,99506.89
2019-05-30T07:19:28.217Z,99507.49
2019-05-30T07:21:58.492Z,99510.42
2019-05-30T07:24:29.841Z,99514.31
2019-05-30T07:27:01.293Z,99512.86
2019-05-30T07:29:32.153Z,99509.91
2019-05-30T07:32:02.703Z,99509.19
2019-05-30T07:34:34.205Z,99515.03
2019-05-30T07:37:04.643Z,99510.38
2019-05-30T07:39:37.331Z,99515.48
2019-05-30T07:42:07.218Z,99517.94
2019-05-30T07:44:37.542Z,99515.45
2019-05-30T07:47:07.726Z,99521.14
2019-05-30T07:49:38.673Z,99518.08
2019-05-30T07:52:09.016Z,99523.52
2019-05-30T07:54:39.351Z,99524.02
2019-05-30T07:57:09.614Z,99520.41
2019-05-30T07:59:39.877Z,99523.57
2019-05-30T08:02:10.505Z,99519.84
2019-05-30T08:04:40.844Z,99519.23
2019-05-30T08:07:11.127Z,99520.57
2019-05-30T08:09:41.688Z,99515.67
2019-05-30T08:12:11.880Z,99510.19
2019-05-30T08:14:42.125Z,99513.90
2019-05-30T08:17:12.477Z,99512.38
2019-05-30T08:19:42.833Z,99512.30
2019-05-30T08:22:13.049Z,99507.85
2019-05-30T08:24:43.264Z,99511.43
2019-05-30T08:27:13.492Z,99511.05
2019-05-30T08:29:43.720Z,99515.75
2019-05-30T08:32:14.297Z,99517.84
2019-05-30T08:34:44.517Z,99514.42
2019-05-30T08:37:14.814Z,99510.72
2019-05-30T08:39:45.377Z,99515.66
2019-05-30T08:42:15.565Z,99509.92
2019-05-30T08:44:46.142Z,99510.97
2019-05-30T08:47:16.420Z,99505.89
2019-05-30T08:49:46.703Z,99507.23
2019-05-30T08:52:17.295Z,99511.28
2019-05-30T08:54:47.512Z,99512.30
2019-05-30T08:57:17.915Z,99513.23
2019-05-30T08:59:48.166Z,99504.99
2019-05-30T09:02:18.481Z,99510.44
2019-05-30T09:04:50.317Z,99510.09
2019-05-30T09:07:20.562Z,99508.45
2019-05-30T09:09:50.825Z,99513.17
2019-05-30T09:12:21.107Z,99505.70
2019-05-30T09:14:51.555Z,99506.99
2019-05-30T09:17:21.921Z,99505.34
2019-05-30T09:19:52.350Z,99505.56
2019-05-30T09:22:22.618Z,99503.33
2019-05-30T09:24:52.911Z,99504.03
2019-05-30T09:27:23.381Z,99493.68
2019-05-30T09:29:53.662Z,99493.64
2019-05-30T09:32:24.853Z,99493.31
2019-05-30T09:34:55.375Z,99488.75
2019-05-30T09:37:26.645Z,99491.13
2019-05-30T09:39:57.634Z,99486.42
2019-05-30T09:42:27.958Z,99484.98
2019-05-30T09:44:58.530Z,99487.45
2019-05-30T09:47:29.610Z,99480.81
2019-05-30T09:50:03.138Z,99488.45
2019-05-30T09:52:33.427Z,99480.38
2019-05-30T09:55:03.787Z,99484.83
2019-05-30T09:57:34.036Z,99485.52
2019-05-30T10:00:05.108Z,99483.39
2019-05-30T10:02:35.401Z,99478.13
2019-05-30T10:05:07.423Z,99471.44
2019-05-30T10:07:38.099Z,99473.31
2019-05-30T10:10:09.165Z,99471.61
2019-05-30T10:12:39.784Z,99473.59
2019-05-30T10:15:11.356Z,99464.23
2019-05-30T10:17:41.782Z,99471.47
2019-05-30T10:20:12.660Z,99466.89
2019-05-30T10:22:42.934Z,99465.59
2019-05-30T10:25:13.707Z,99469.70
2019-05-30T10:27:46.273Z,99465.96
2019-05-30T10:30:17.079Z,99459.34
2019-05-30T10:32:49.008Z,99463.52
2019-05-30T10:35:20.937Z,99460.23
2019-05-30T10:37:51.381Z,99463.91
2019-05-30T10:40:22.028Z,99455.61
2019-05-30T10:42:53.314Z,99458.09
2019-05-30T10:45:24.947Z,99456.25
2019-05-30T10:47:55.666Z,99452.97
2019-05-30T10:50:26.433Z,99453.71
2019-05-30T10:52:57.979Z,99449.19
2019-05-30T10:55:28.490Z,99454.80
2019-05-30T10:57:59.728Z,99444.45
2019-05-30T11:00:48.912Z,99445.73
2019-05-30T11:03:21.250Z,99441.78
2019-05-30T11:06:23.305Z,99434.15
2019-05-30T11:08:56.698Z,99446.05
2019-05-30T11:11:27.911Z,99440.25
2019-05-30T11:13:58.200Z,99433.08
2019-05-30T11:16:28.476Z,99432.06
2019-05-30T11:18:58.752Z,99427.42
2019-05-30T11:21:29.274Z,99426.49
2019-05-30T11:23:59.828Z,99418.42
2019-05-30T11:26:30.100Z,99417.92
2019-05-30T11:29:00.388Z,99420.11
2019-05-30T11:31:31.011Z,99419.41
2019-05-30T11:34:01.478Z,99417.62
2019-05-30T11:36:31.741Z,99414.77
2019-05-30T11:39:02.102Z,99409.53
2019-05-30T11:41:33.948Z,99406.81
2019-05-30T11:44:04.460Z,99402.66
2019-05-30T11:46:34.669Z,99399.19
2019-05-30T11:49:05.412Z,99394.91
2019-05-30T11:51:35.639Z,99399.48
2019-05-30T11:54:06.399Z,99395.45
2019-05-30T11:56:36.617Z,99397.81
2019-05-30T11:59:06.822Z,99396.84
2019-05-30T12:01:37.035Z,99397.47
2019-05-30T12:04:07.272Z,99400.07
2019-05-30T12:06:37.480Z,99404.23
2019-05-30T12:09:08.864Z,99402.38
2019-05-30T12:11:39.055Z,99399.48
2019-05-30T12:14:09.362Z,99393.78
2019-05-30T12:16:39.595Z,99395.17
2019-05-30T12:19:10.199Z,99393.77
2019-05-30T12:21:40.463Z,99394.84
2019-05-30T12:24:10.775Z,99388.22
2019-05-30T12:26:41.038Z,99388.61
2019-05-30T12:29:11.666Z,99382.73
2019-05-30T12:31:41.873Z,99385.66
2019-05-30T12:34:12.120Z,99374.83
2019-05-30T12:36:42.414Z,99383.31
2019-05-30T12:39:13.099Z,99384.34
2019-05-30T12:41:43.703Z,99378.20
2019-05-30T12:44:14.018Z,99387.34
2019-05-30T12:46:44.555Z,99380.27
2019-05-30T12:49:14.784Z,99375.63
2019-05-30T12:51:45.140Z,99377.88
2019-05-30T12:54:16.001Z,99378.91
2019-05-30T12:56:46.200Z,99380.20
2019-05-30T12:59:16.539Z,99376.75
2019-05-30T13:01:46.718Z,99376.95
2019-05-30T13:04:16.984Z,99379.45
2019-05-30T13:06:48.142Z,99381.72
2019-05-30T13:09:18.706Z,99378.67
2019-05-30T13:11:48.974Z,99373.98
2019-05-30T13:14:19.572Z,99380.02
2019-05-30T13:16:49.805Z,99379.62
2019-05-30T13:19:20.042Z,99375.92
2019-05-30T13:21:53.683Z,99381.09
2019-05-30T13:24:22.357Z,99372.78
2019-05-30T13:26:52.603Z,99376.57
2019-05-30T13:29:22.831Z,99375.95
2019-05-30T13:31:53.372Z,99371.59
2019-05-30T13:34:23.594Z,99378.83
2019-05-30T13:36:53.924Z,99368.00
2019-05-30T13:39:24.556Z,99371.28
2019-05-30T13:41:54.788Z,99368.37
2019-05-30T13:44:25.038Z,99366.97
2019-05-30T13:46:55.370Z,99366.61
2019-05-30T13:49:25.707Z,99375.90
2019-05-30T13:51:56.106Z,99369.23
2019-05-30T13:54:26.318Z,99374.06
2019-05-30T13:56:56.616Z,99370.08
2019-05-30T13:59:26.890Z,99368.86
2019-05-30T14:01:57.477Z,99371.20
2019-05-30T14:04:27.730Z,99370.66
2019-05-30T14:06:58.011Z,99367.46
2019-05-30T14:09:28.298Z,99363.02
2019-05-30T14:11:58.684Z,99365.66
2019-05-30T14:14:28.947Z,99363.02
2019-05-30T14:16:59.212Z,99363.02
2019-05-30T14:19:29.484Z,99357.10
2019-05-30T14:22:01.163Z,99361.30
2019-05-30T14:24:31.896Z,99363.97
2019-05-30T14:27:03.387Z,99368.45
2019-05-30T14:29:34.779Z,99371.77
2019-05-30T14:32:05.751Z,99366.80
2019-05-30T14:34:36.039Z,99361.79
2019-05-30T14:37:06.477Z,99366.11
2019-05-30T14:39:37.885Z,99370.30
2019-05-30T14:42:09.169Z,99371.82
2019-05-30T14:44:40.512Z,99373.03
2019-05-30T14:47:10.799Z,99381.01
2019-05-30T14:49:40.999Z,99378.11
2019-05-30T14:52:11.783Z,99372.41
2019-05-30T14:54:43.229Z,99374.13
2019-05-30T14:57:13.524Z,99381.33
2019-05-30T14:59:44.157Z,99377.27
2019-05-30T15:02:14.392Z,99375.88
2019-05-30T15:04:45.529Z,99376.30
2019-05-30T15:07:15.762Z,99382.43
2019-05-30T15:09:49.364Z,99374.70
2019-05-30T15:12:19.669Z,99375.86
2019-05-30T15:14:49.960Z,99373.18
2019-05-30T15:17:20.271Z,99375.64
2019-05-30T15:19:50.549Z,99369.03
2019-05-30T15:22:20.869Z,99372.88
2019-05-30T15:24:51.239Z,99364.73
2019-05-30T15:27:21.516Z,99367.20
2019-05-30T15:29:52.254Z,99366.78
2019-05-30T15:32:22.484Z,99372.96
2019-05-30T15:34:52.776Z,99370.56
2019-05-30T15:37:23.024Z,99372.17
2019-05-30T15:39:53.661Z,99370.61
2019-05-30T15:42:24.254Z,99366.67
2019-05-30T15:44:54.824Z,99372.33
2019-05-30T15:47:25.028Z,99366.91
2019-05-30T15:49:55.677Z,99368.95
2019-05-30T15:52:26.306Z,99368.64
2019-05-30T15:54:56.578Z,99363.69
2019-05-30T15:57:26.863Z,99360.78
2019-05-30T15:59:57.114Z,99361.39
2019-05-30T16:02:27.588Z,99357.39
2019-05-30T16:04:58.245Z,99371.67
2019-05-30T16:07:29.480Z,99356.08
2019-05-30T16:10:00.257Z,99354.55
2019-05-30T16:12:30.870Z,99354.30
2019-05-30T16:15:01.042Z,99360.31
2019-05-30T16:17:32.702Z,99362.71
2019-05-30T16:20:02.994Z,99367.39
2019-05-30T16:22:35.094Z,99356.30
2019-05-30T16:25:05.523Z,99356.50
2019-05-30T16:27:35.867Z,99352.51
2019-05-30T16:30:07.928Z,99352.20
2019-05-30T16:32:38.464Z,99345.97
2019-05-30T16:35:09.975Z,99351.27
2019-05-30T16:37:41.207Z,99353.99
2019-05-30T16:40:12.580Z,99349.03
2019-05-30T16:42:42.876Z,99353.56
2019-05-30T16:45:18.267Z,99355.15
2019-05-30T16:47:49.148Z,99352.11
2019-05-30T16:50:20.672Z,99347.64
2019-05-30T16:52:50.891Z,99354.62
2019-05-30T16:55:21.409Z,99350.42
2019-05-30T16:57:51.769Z,99350.75
2019-05-30T17:00:22.592Z,99350.81
2019-05-30T17:02:53.322Z,99356.09
2019-05-30T17:05:23.499Z,99355.96
2019-05-30T17:07:54.080Z,99357.44
2019-05-30T17:10:32.264Z,99355.69
2019-05-30T17:12:57.830Z,99361.71
2019-05-30T17:15:28.157Z,99354.98
2019-05-30T17:17:59.230Z,99361.50
2019-05-30T17:20:29.430Z,99362.15
2019-05-30T17:23:00.008Z,99358.58
2019-05-30T17:25:30.769Z,99356.56
2019-05-30T17:28:01.061Z,99362.82
2019-05-30T17:30:31.333Z,99361.75
2019-05-30T17:33:01.683Z,99356.90
2019-05-30T17:35:31.913Z,99357.02
2019-05-30T17:38:02.163Z,99367.73
2019-05-30T17:40:44.312Z,99364.44
2019-05-30T17:43:04.688Z,99366.42
2019-05-30T17:45:34.957Z,99361.78
2019-05-30T17:48:15.983Z,99371.67
2019-05-30T17:50:38.195Z,99371.20
2019-05-30T17:53:08.739Z,99371.86
2019-05-30T17:55:39.131Z,99374.25
2019-05-30T17:58:10.323Z,99368.82
2019-05-30T18:00:41.193Z,99369.98
2019-05-30T18:03:11.660Z,99372.27
2019-05-30T18:05:42.087Z,99373.39
2019-05-30T18:08:12.440Z,99369.84
2019-05-30T18:10:53.311Z,99375.80
2019-05-30T18:13:15.388Z,99374.48
2019-05-30T18:15:45.613Z,99370.77
2019-05-30T18:18:15.792Z,99376.23
2019-05-30T18:20:48.680Z,99373.09
2019-05-30T18:23:18.871Z,99382.00
2019-05-30T18:25:49.277Z,99377.24
2019-05-30T18:28:19.549Z,99386.10
2019-05-30T18:30:49.815Z,99383.42
2019-05-30T18:33:20.071Z,99385.52
2019-05-30T18:35:50.358Z,99380.83
2019-05-30T18:38:20.657Z,99385.28
2019-05-30T18:40:50.979Z,99386.09
2019-05-30T18:43:21.235Z,99389.52
2019-05-30T18:45:51.710Z,99393.44
2019-05-30T18:48:23.301Z,99393.11
2019-05-30T18:50:53.658Z,99394.47
2019-05-30T18:53:24.210Z,99393.81
2019-05-30T18:55:54.694Z,99393.84
2019-05-30T18:58:24.911Z,99389.08
2019-05-30T19:00:55.380Z,99395.22
2019-05-30T19:03:26.474Z,99394.22
2019-05-30T19:05:56.992Z,99390.11
2019-05-30T19:08:27.886Z,99386.38
2019-05-30T19:10:58.522Z,99391.67
2019-05-30T19:13:29.230Z,99394.73
2019-05-30T19:15:59.807Z,99399.50
2019-05-30T19:18:31.610Z,99396.11
2019-05-30T19:21:01.975Z,99398.14
2019-05-30T19:23:32.239Z,99400.33
2019-05-30T19:26:02.518Z,99403.03
2019-05-30T19:28:32.782Z,99410.84
2019-05-30T19:31:03.091Z,99412.52
2019-05-30T19:33:34.954Z,99414.37
2019-05-30T19:36:05.533Z,99413.51
2019-05-30T19:38:35.828Z,99413.83
2019-05-30T19:41:06.130Z,99406.71
2019-05-30T19:43:36.474Z,99408.07
2019-05-30T19:46:07.280Z,99415.88
2019-05-30T19:48:38.534Z,99418.91
2019-05-30T19:51:08.843Z,99421.95
2019-05-30T19:53:39.393Z,99425.52
2019-05-30T19:56:09.888Z,99430.59
2019-05-30T19:58:40.159Z,99430.93
2019-05-30T20:01:10.435Z,99429.73
2019-05-30T20:03:46.269Z,99433.30
2019-05-30T20:06:12.629Z,99433.93
2019-05-30T20:08:54.596Z,99437.49
2019-05-30T20:11:15.267Z,99443.41
2019-05-30T20:13:45.570Z,99444.06
2019-05-30T20:16:15.870Z,99444.73
2019-05-30T20:18:46.162Z,99445.58
2019-05-30T20:21:16.410Z,99438.22
2019-05-30T20:23:54.242Z,99445.11
2019-05-30T20:26:18.742Z,99447.27
2019-05-30T20:28:49.248Z,99449.47
2019-05-30T20:31:19.467Z,99451.48
2019-05-30T20:33:50.330Z,99452.10
2019-05-30T20:36:21.958Z,99449.86
2019-05-30T20:38:52.284Z,99453.08
2019-05-30T20:41:22.537Z,99454.39
2019-05-30T20:43:52.793Z,99451.27
2019-05-30T20:46:24.186Z,99447.09
2019-05-30T20:48:54.450Z,99445.59
2019-05-30T20:51:24.727Z,99447.16
2019-05-30T20:53:55.094Z,99454.56
2019-05-30T20:56:25.372Z,99450.38
2019-05-30T20:58:55.606Z,99458.09
2019-05-30T21:01:25.965Z,99452.57
2019-05-30T21:03:56.254Z,99460.61
2019-05-30T21:06:27.580Z,99454.66
2019-05-30T21:08:59.340Z,99457.89
2019-05-30T21:11:30.810Z,99464.46
2019-05-30T21:14:02.504Z,99466.97
2019-05-30T21:16:35.555Z,99469.38
2019-05-30T21:19:05.906Z,99464.09
2019-05-30T21:21:36.199Z,99475.00
2019-05-30T21:24:06.418Z,99477.50
2019-05-30T21:26:36.805Z,99477.30
2019-05-30T21:29:07.110Z,99483.20
2019-05-30T21:31:37.435Z,99486.92
2019-05-30T21:34:07.764Z,99481.47
2019-05-30T21:36:39.826Z,99490.06
2019-05-30T21:39:10.357Z,99485.66
2019-05-30T21:41:42.181Z,99487.20
2019-05-30T21:44:12.575Z,99480.45
2019-05-30T21:46:42.836Z,99478.33
2019-05-30T21:49:13.102Z,99483.29
2019-05-30T21:51:43.373Z,99478.23
2019-05-30T21:54:13.591Z,99479.44
2019-05-30T21:56:44.074Z,99479.19
2019-05-30T21:59:14.382Z,99480.50
2019-05-30T22:01:44.875Z,99476.33
2019-05-30T22:04:15.305Z,99477.08
2019-05-30T22:06:45.563Z,99483.09
2019-05-30T22:09:15.888Z,99482.80
2019-05-30T22:11:46.120Z,99476.89
2019-05-30T22:14:16.410Z,99478.92
2019-05-30T22:16:47.930Z,99485.22
2019-05-30T22:19:18.657Z,99486.17
2019-05-30T22:21:50.282Z,99491.37
2019-05-30T22:24:21.784Z,99482.96
2019-05-30T22:26:52.668Z,99482.39
2019-05-30T22:29:23.079Z,99485.02
2019-05-30T22:31:53.614Z,99489.16
2019-05-30T22:34:23.901Z,99476.94
2019-05-30T22:36:54.226Z,99487.87
2019-05-30T22:39:24.459Z,99493.56
2019-05-30T22:41:54.734Z,99487.84
2019-05-30T22:44:25.626Z,99489.83
2019-05-30T22:46:56.934Z,99489.10
2019-05-30T22:49:27.527Z,99490.72
2019-05-30T22:51:57.772Z,99487.09
2019-05-30T22:54:27.969Z,99482.33
2019-05-30T22:57:01.330Z,99485.40
2019-05-30T22:59:30.548Z,99486.25
2019-05-30T23:02:00.912Z,99480.05
2019-05-30T23:04:32.125Z,99479.31
2019-05-30T23:07:02.856Z,99482.27
2019-05-30T23:09:33.586Z,99483.47
2019-05-30T23:12:04.259Z,99476.03
2019-05-30T23:14:34.546Z,99477.55
2019-05-30T23:17:04.899Z,99484.42
2019-05-30T23:19:35.831Z,99482.97
2019-05-30T23:22:06.188Z,99482.84
2019-05-30T23:24:36.474Z,99482.50
2019-05-30T23:27:08.310Z,99483.84
2019-05-30T23:29:39.151Z,99481.77
2019-05-30T23:32:09.417Z,99481.43
2019-05-30T23:34:41.506Z,99474.84
2019-05-30T23:37:12.708Z,99479.25
2019-05-30T23:39:43.417Z,99479.27
2019-05-30T23:42:13.622Z,99478.30
2019-05-30T23:44:43.943Z,99480.01
2019-05-30T23:47:14.271Z,99482.46
2019-05-30T23:49:44.523Z,99477.30
2019-05-30T23:52:15.216Z,99478.55
2019-05-30T23:54:45.477Z,99478.55
2019-05-30T23:57:15.678Z,99475.62
2019-05-30T23:59:45.930Z,99468.91
